sensor_id;sensor_type;location;lat;lon;timestamp;P1;durP1;ratioP1;P2;durP2;ratioP2
85849;SDS011;76337;42.850;-0.560;2024-02-15T00:01:57;0.57;;;0.40;;
85849;SDS011;76337;42.850;-0.560;2024-02-15T00:04:22;0.50;;;0.38;;
85849;SDS011;76337;42.850;-0.560;2024-02-15T00:06:48;0.50;;;0.20;;
85849;SDS011;76337;42.850;-0.560;2024-02-15T00:09:14;0.10;;;0.10;;
85849;SDS011;76337;42.850;-0.560;2024-02-15T00:11:39;1.05;;;0.40;;
85849;SDS011;76337;42.850;-0.560;2024-02-15T00:14:05;0.60;;;0.45;;
85849;SDS011;76337;42.850;-0.560;2024-02-15T00:16:32;0.30;;;0.30;;
85849;SDS011;76337;42.850;-0.560;2024-02-15T00:18:59;0.40;;;0.30;;
85849;SDS011;76337;42.850;-0.560;2024-02-15T00:21:25;0.60;;;0.30;;
85849;SDS011;76337;42.850;-0.560;2024-02-15T00:23:51;1.05;;;0.65;;
85849;SDS011;76337;42.850;-0.560;2024-02-15T00:26:19;0.60;;;0.40;;
85849;SDS011;76337;42.850;-0.560;2024-02-15T00:28:44;1.08;;;0.30;;
85849;SDS011;76337;42.850;-0.560;2024-02-15T00:31:10;0.60;;;0.40;;
85849;SDS011;76337;42.850;-0.560;2024-02-15T00:33:36;0.47;;;0.13;;
85849;SDS011;76337;42.850;-0.560;2024-02-15T00:36:02;0.57;;;0.32;;
85849;SDS011;76337;42.850;-0.560;2024-02-15T00:38:29;0.65;;;0.45;;
85849;SDS011;76337;42.850;-0.560;2024-02-15T00:40:57;0.47;;;0.32;;
85849;SDS011;76337;42.850;-0.560;2024-02-15T00:43:24;0.50;;;0.30;;
85849;SDS011;76337;42.850;-0.560;2024-02-15T00:45:51;0.65;;;0.40;;
85849;SDS011;76337;42.850;-0.560;2024-02-15T00:48:17;0.43;;;0.40;;
85849;SDS011;76337;42.850;-0.560;2024-02-15T00:50:43;1.60;;;0.40;;
85849;SDS011;76337;42.850;-0.560;2024-02-15T00:53:09;0.55;;;0.40;;
85849;SDS011;76337;42.850;-0.560;2024-02-15T00:55:34;0.35;;;0.20;;
85849;SDS011;76337;42.850;-0.560;2024-02-15T00:58:00;0.85;;;0.73;;
85849;SDS011;76337;42.850;-0.560;2024-02-15T01:00:26;0.73;;;0.32;;
85849;SDS011;76337;42.850;-0.560;2024-02-15T01:02:51;0.70;;;0.47;;
85849;SDS011;76337;42.850;-0.560;2024-02-15T01:05:18;1.23;;;0.45;;
85849;SDS011;76337;42.850;-0.560;2024-02-15T01:07:44;1.30;;;0.52;;
85849;SDS011;76337;42.850;-0.560;2024-02-15T01:10:10;0.52;;;0.40;;
85849;SDS011;76337;42.850;-0.560;2024-02-15T01:12:35;0.90;;;0.40;;
85849;SDS011;76337;42.850;-0.560;2024-02-15T01:15:01;0.82;;;0.50;;
85849;SDS011;76337;42.850;-0.560;2024-02-15T01:17:28;1.05;;;0.45;;
85849;SDS011;76337;42.850;-0.560;2024-02-15T01:19:54;1.17;;;0.40;;
85849;SDS011;76337;42.850;-0.560;2024-02-15T01:22:27;0.90;;;0.50;;
85849;SDS011;76337;42.850;-0.560;2024-02-15T01:24:54;1.00;;;0.38;;
85849;SDS011;76337;42.850;-0.560;2024-02-15T01:27:23;1.05;;;0.50;;
85849;SDS011;76337;42.850;-0.560;2024-02-15T01:29:50;1.30;;;0.80;;
85849;SDS011;76337;42.850;-0.560;2024-02-15T01:32:17;0.55;;;0.40;;
85849;SDS011;76337;42.850;-0.560;2024-02-15T01:34:44;0.20;;;0.20;;
85849;SDS011;76337;42.850;-0.560;2024-02-15T01:37:11;1.52;;;0.60;;
85849;SDS011;76337;42.850;-0.560;2024-02-15T01:39:37;1.42;;;0.38;;
85849;SDS011;76337;42.850;-0.560;2024-02-15T01:42:03;1.20;;;0.60;;
85849;SDS011;76337;42.850;-0.560;2024-02-15T01:44:30;0.17;;;0.10;;
85849;SDS011;76337;42.850;-0.560;2024-02-15T01:46:56;0.63;;;0.20;;
85849;SDS011;76337;42.850;-0.560;2024-02-15T01:49:25;0.90;;;0.75;;
85849;SDS011;76337;42.850;-0.560;2024-02-15T01:51:53;0.65;;;0.40;;
85849;SDS011;76337;42.850;-0.560;2024-02-15T01:54:23;1.08;;;0.52;;
85849;SDS011;76337;42.850;-0.560;2024-02-15T01:56:50;0.60;;;0.40;;
85849;SDS011;76337;42.850;-0.560;2024-02-15T01:59:16;0.95;;;0.35;;
85849;SDS011;76337;42.850;-0.560;2024-02-15T02:01:43;0.70;;;0.47;;
85849;SDS011;76337;42.850;-0.560;2024-02-15T02:04:10;0.68;;;0.40;;
85849;SDS011;76337;42.850;-0.560;2024-02-15T02:06:37;1.10;;;0.50;;
85849;SDS011;76337;42.850;-0.560;2024-02-15T02:09:04;0.95;;;0.88;;
85849;SDS011;76337;42.850;-0.560;2024-02-15T02:11:30;1.23;;;0.60;;
85849;SDS011;76337;42.850;-0.560;2024-02-15T02:13:56;2.25;;;0.55;;
85849;SDS011;76337;42.850;-0.560;2024-02-15T02:16:24;0.80;;;0.40;;
85849;SDS011;76337;42.850;-0.560;2024-02-15T02:18:52;0.98;;;0.47;;
85849;SDS011;76337;42.850;-0.560;2024-02-15T02:21:18;0.63;;;0.30;;
85849;SDS011;76337;42.850;-0.560;2024-02-15T02:23:45;0.63;;;0.30;;
85849;SDS011;76337;42.850;-0.560;2024-02-15T02:26:18;1.50;;;0.57;;
85849;SDS011;76337;42.850;-0.560;2024-02-15T02:28:47;1.00;;;0.40;;
85849;SDS011;76337;42.850;-0.560;2024-02-15T02:31:13;0.65;;;0.40;;
85849;SDS011;76337;42.850;-0.560;2024-02-15T02:33:41;0.45;;;0.20;;
85849;SDS011;76337;42.850;-0.560;2024-02-15T02:36:13;0.77;;;0.20;;
85849;SDS011;76337;42.850;-0.560;2024-02-15T02:38:39;1.10;;;0.40;;
85849;SDS011;76337;42.850;-0.560;2024-02-15T02:41:06;0.88;;;0.60;;
85849;SDS011;76337;42.850;-0.560;2024-02-15T02:43:32;0.70;;;0.32;;
85849;SDS011;76337;42.850;-0.560;2024-02-15T02:45:58;1.05;;;0.47;;
85849;SDS011;76337;42.850;-0.560;2024-02-15T02:48:25;0.52;;;0.30;;
85849;SDS011;76337;42.850;-0.560;2024-02-15T02:50:52;1.35;;;0.40;;
85849;SDS011;76337;42.850;-0.560;2024-02-15T02:53:18;0.70;;;0.40;;
85849;SDS011;76337;42.850;-0.560;2024-02-15T02:55:45;0.82;;;0.50;;
85849;SDS011;76337;42.850;-0.560;2024-02-15T02:58:11;0.60;;;0.38;;
85849;SDS011;76337;42.850;-0.560;2024-02-15T03:00:38;0.77;;;0.38;;
85849;SDS011;76337;42.850;-0.560;2024-02-15T03:03:05;0.63;;;0.32;;
85849;SDS011;76337;42.850;-0.560;2024-02-15T03:05:31;0.80;;;0.45;;
85849;SDS011;76337;42.850;-0.560;2024-02-15T03:07:57;0.82;;;0.45;;
85849;SDS011;76337;42.850;-0.560;2024-02-15T03:10:24;0.60;;;0.20;;
85849;SDS011;76337;42.850;-0.560;2024-02-15T03:12:50;0.75;;;0.40;;
85849;SDS011;76337;42.850;-0.560;2024-02-15T03:15:16;0.63;;;0.40;;
85849;SDS011;76337;42.850;-0.560;2024-02-15T03:17:44;0.63;;;0.20;;
85849;SDS011;76337;42.850;-0.560;2024-02-15T03:20:11;0.82;;;0.40;;
85849;SDS011;76337;42.850;-0.560;2024-02-15T03:22:54;0.43;;;0.30;;
85849;SDS011;76337;42.850;-0.560;2024-02-15T03:25:24;1.83;;;0.40;;
85849;SDS011;76337;42.850;-0.560;2024-02-15T03:27:53;1.67;;;0.47;;
85849;SDS011;76337;42.850;-0.560;2024-02-15T03:30:21;0.55;;;0.30;;
85849;SDS011;76337;42.850;-0.560;2024-02-15T03:32:51;0.50;;;0.40;;
85849;SDS011;76337;42.850;-0.560;2024-02-15T03:35:19;0.82;;;0.32;;
85849;SDS011;76337;42.850;-0.560;2024-02-15T03:37:47;0.40;;;0.30;;
85849;SDS011;76337;42.850;-0.560;2024-02-15T03:40:18;0.90;;;0.55;;
85849;SDS011;76337;42.850;-0.560;2024-02-15T03:42:45;0.70;;;0.30;;
85849;SDS011;76337;42.850;-0.560;2024-02-15T03:45:13;1.77;;;0.50;;
85849;SDS011;76337;42.850;-0.560;2024-02-15T03:47:39;0.95;;;0.43;;
85849;SDS011;76337;42.850;-0.560;2024-02-15T03:50:05;0.68;;;0.30;;
85849;SDS011;76337;42.850;-0.560;2024-02-15T03:52:36;0.43;;;0.30;;
85849;SDS011;76337;42.850;-0.560;2024-02-15T03:55:03;1.20;;;0.50;;
85849;SDS011;76337;42.850;-0.560;2024-02-15T03:57:30;0.52;;;0.30;;
85849;SDS011;76337;42.850;-0.560;2024-02-15T03:59:56;0.50;;;0.43;;
85849;SDS011;76337;42.850;-0.560;2024-02-15T04:02:24;0.95;;;0.22;;
85849;SDS011;76337;42.850;-0.560;2024-02-15T04:04:55;0.63;;;0.40;;
85849;SDS011;76337;42.850;-0.560;2024-02-15T04:07:22;0.85;;;0.40;;
85849;SDS011;76337;42.850;-0.560;2024-02-15T04:09:50;0.52;;;0.40;;
85849;SDS011;76337;42.850;-0.560;2024-02-15T04:12:16;0.98;;;0.40;;
85849;SDS011;76337;42.850;-0.560;2024-02-15T04:14:43;0.52;;;0.30;;
85849;SDS011;76337;42.850;-0.560;2024-02-15T04:17:12;0.95;;;0.30;;
85849;SDS011;76337;42.850;-0.560;2024-02-15T04:19:40;0.63;;;0.35;;
85849;SDS011;76337;42.850;-0.560;2024-02-15T04:22:07;0.28;;;0.20;;
85849;SDS011;76337;42.850;-0.560;2024-02-15T04:24:34;0.90;;;0.43;;
85849;SDS011;76337;42.850;-0.560;2024-02-15T04:27:05;0.80;;;0.40;;
85849;SDS011;76337;42.850;-0.560;2024-02-15T04:29:34;0.50;;;0.32;;
85849;SDS011;76337;42.850;-0.560;2024-02-15T04:32:02;0.88;;;0.47;;
85849;SDS011;76337;42.850;-0.560;2024-02-15T04:34:29;0.50;;;0.30;;
85849;SDS011;76337;42.850;-0.560;2024-02-15T04:37:00;0.75;;;0.30;;
85849;SDS011;76337;42.850;-0.560;2024-02-15T04:39:33;0.98;;;0.40;;
85849;SDS011;76337;42.850;-0.560;2024-02-15T04:42:03;1.65;;;0.20;;
85849;SDS011;76337;42.850;-0.560;2024-02-15T04:44:33;1.10;;;0.55;;
85849;SDS011;76337;42.850;-0.560;2024-02-15T04:47:00;0.22;;;0.10;;
85849;SDS011;76337;42.850;-0.560;2024-02-15T04:49:30;0.70;;;0.40;;
85849;SDS011;76337;42.850;-0.560;2024-02-15T04:51:56;0.75;;;0.40;;
85849;SDS011;76337;42.850;-0.560;2024-02-15T04:54:24;0.63;;;0.43;;
85849;SDS011;76337;42.850;-0.560;2024-02-15T04:56:51;1.08;;;0.40;;
85849;SDS011;76337;42.850;-0.560;2024-02-15T04:59:20;0.50;;;0.35;;
85849;SDS011;76337;42.850;-0.560;2024-02-15T05:01:50;1.25;;;0.40;;
85849;SDS011;76337;42.850;-0.560;2024-02-15T05:04:19;0.63;;;0.20;;
85849;SDS011;76337;42.850;-0.560;2024-02-15T05:06:44;0.50;;;0.30;;
85849;SDS011;76337;42.850;-0.560;2024-02-15T05:09:10;0.52;;;0.40;;
85849;SDS011;76337;42.850;-0.560;2024-02-15T05:11:38;1.10;;;0.40;;
85849;SDS011;76337;42.850;-0.560;2024-02-15T05:14:06;0.63;;;0.20;;
85849;SDS011;76337;42.850;-0.560;2024-02-15T05:16:34;0.30;;;0.30;;
85849;SDS011;76337;42.850;-0.560;2024-02-15T05:19:00;0.75;;;0.40;;
85849;SDS011;76337;42.850;-0.560;2024-02-15T05:21:26;0.85;;;0.50;;
85849;SDS011;76337;42.850;-0.560;2024-02-15T05:23:53;0.80;;;0.40;;
85849;SDS011;76337;42.850;-0.560;2024-02-15T05:26:20;1.38;;;0.40;;
85849;SDS011;76337;42.850;-0.560;2024-02-15T05:28:49;1.20;;;0.40;;
85849;SDS011;76337;42.850;-0.560;2024-02-15T05:31:17;1.13;;;0.50;;
85849;SDS011;76337;42.850;-0.560;2024-02-15T05:33:47;1.13;;;0.40;;
85849;SDS011;76337;42.850;-0.560;2024-02-15T05:36:14;0.55;;;0.40;;
85849;SDS011;76337;42.850;-0.560;2024-02-15T05:38:41;1.63;;;0.50;;
85849;SDS011;76337;42.850;-0.560;2024-02-15T05:41:11;1.13;;;0.20;;
85849;SDS011;76337;42.850;-0.560;2024-02-15T05:43:38;0.65;;;0.38;;
85849;SDS011;76337;42.850;-0.560;2024-02-15T05:46:07;0.70;;;0.40;;
85849;SDS011;76337;42.850;-0.560;2024-02-15T05:48:34;1.35;;;0.43;;
85849;SDS011;76337;42.850;-0.560;2024-02-15T05:51:02;0.50;;;0.32;;
85849;SDS011;76337;42.850;-0.560;2024-02-15T05:53:29;0.45;;;0.35;;
85849;SDS011;76337;42.850;-0.560;2024-02-15T05:55:57;0.93;;;0.50;;
85849;SDS011;76337;42.850;-0.560;2024-02-15T05:58:24;0.40;;;0.30;;
85849;SDS011;76337;42.850;-0.560;2024-02-15T06:00:50;0.75;;;0.47;;
85849;SDS011;76337;42.850;-0.560;2024-02-15T06:03:18;0.73;;;0.40;;
85849;SDS011;76337;42.850;-0.560;2024-02-15T06:05:47;0.45;;;0.30;;
85849;SDS011;76337;42.850;-0.560;2024-02-15T06:08:13;0.77;;;0.45;;
85849;SDS011;76337;42.850;-0.560;2024-02-15T06:10:40;0.77;;;0.40;;
85849;SDS011;76337;42.850;-0.560;2024-02-15T06:13:06;0.52;;;0.20;;
85849;SDS011;76337;42.850;-0.560;2024-02-15T06:15:35;0.52;;;0.40;;
85849;SDS011;76337;42.850;-0.560;2024-02-15T06:18:01;0.40;;;0.30;;
85849;SDS011;76337;42.850;-0.560;2024-02-15T06:20:35;1.48;;;0.35;;
85849;SDS011;76337;42.850;-0.560;2024-02-15T06:23:01;0.68;;;0.47;;
85849;SDS011;76337;42.850;-0.560;2024-02-15T06:25:32;0.63;;;0.30;;
85849;SDS011;76337;42.850;-0.560;2024-02-15T06:27:58;0.68;;;0.40;;
85849;SDS011;76337;42.850;-0.560;2024-02-15T06:30:28;1.17;;;0.50;;
85849;SDS011;76337;42.850;-0.560;2024-02-15T06:33:15;0.90;;;0.30;;
85849;SDS011;76337;42.850;-0.560;2024-02-15T06:36:04;0.75;;;0.40;;
85849;SDS011;76337;42.850;-0.560;2024-02-15T06:38:51;0.50;;;0.20;;
85849;SDS011;76337;42.850;-0.560;2024-02-15T06:41:38;1.27;;;0.40;;
85849;SDS011;76337;42.850;-0.560;2024-02-15T06:44:04;2.08;;;0.40;;
85849;SDS011;76337;42.850;-0.560;2024-02-15T06:46:31;0.70;;;0.40;;
85849;SDS011;76337;42.850;-0.560;2024-02-15T06:48:57;0.52;;;0.40;;
85849;SDS011;76337;42.850;-0.560;2024-02-15T06:51:25;1.02;;;0.55;;
85849;SDS011;76337;42.850;-0.560;2024-02-15T06:54:02;0.75;;;0.40;;
85849;SDS011;76337;42.850;-0.560;2024-02-15T06:56:29;0.50;;;0.32;;
85849;SDS011;76337;42.850;-0.560;2024-02-15T06:58:55;0.98;;;0.50;;
85849;SDS011;76337;42.850;-0.560;2024-02-15T07:01:23;0.55;;;0.30;;
85849;SDS011;76337;42.850;-0.560;2024-02-15T07:03:51;0.30;;;0.30;;
85849;SDS011;76337;42.850;-0.560;2024-02-15T07:06:18;0.98;;;0.50;;
85849;SDS011;76337;42.850;-0.560;2024-02-15T07:08:44;0.73;;;0.43;;
85849;SDS011;76337;42.850;-0.560;2024-02-15T07:11:12;0.47;;;0.30;;
85849;SDS011;76337;42.850;-0.560;2024-02-15T07:13:39;1.67;;;0.40;;
85849;SDS011;76337;42.850;-0.560;2024-02-15T07:16:07;1.40;;;0.40;;
85849;SDS011;76337;42.850;-0.560;2024-02-15T07:18:34;0.45;;;0.22;;
85849;SDS011;76337;42.850;-0.560;2024-02-15T07:21:01;1.40;;;0.45;;
85849;SDS011;76337;42.850;-0.560;2024-02-15T07:23:29;0.93;;;0.50;;
85849;SDS011;76337;42.850;-0.560;2024-02-15T07:25:56;0.80;;;0.45;;
85849;SDS011;76337;42.850;-0.560;2024-02-15T07:28:22;0.57;;;0.47;;
85849;SDS011;76337;42.850;-0.560;2024-02-15T07:30:53;1.90;;;0.50;;
85849;SDS011;76337;42.850;-0.560;2024-02-15T07:33:21;1.65;;;0.40;;
85849;SDS011;76337;42.850;-0.560;2024-02-15T07:35:48;1.58;;;0.43;;
85849;SDS011;76337;42.850;-0.560;2024-02-15T07:38:17;0.75;;;0.40;;
85849;SDS011;76337;42.850;-0.560;2024-02-15T07:40:43;0.82;;;0.35;;
85849;SDS011;76337;42.850;-0.560;2024-02-15T07:43:10;0.68;;;0.38;;
85849;SDS011;76337;42.850;-0.560;2024-02-15T07:45:36;0.73;;;0.40;;
85849;SDS011;76337;42.850;-0.560;2024-02-15T07:48:03;0.93;;;0.40;;
85849;SDS011;76337;42.850;-0.560;2024-02-15T07:50:30;0.85;;;0.40;;
85849;SDS011;76337;42.850;-0.560;2024-02-15T07:52:56;0.45;;;0.30;;
85849;SDS011;76337;42.850;-0.560;2024-02-15T07:55:22;0.88;;;0.50;;
85849;SDS011;76337;42.850;-0.560;2024-02-15T07:57:50;0.77;;;0.30;;
85849;SDS011;76337;42.850;-0.560;2024-02-15T08:00:18;0.90;;;0.50;;
85849;SDS011;76337;42.850;-0.560;2024-02-15T08:02:44;0.85;;;0.30;;
85849;SDS011;76337;42.850;-0.560;2024-02-15T08:05:11;1.10;;;0.50;;
85849;SDS011;76337;42.850;-0.560;2024-02-15T08:07:41;0.60;;;0.40;;
85849;SDS011;76337;42.850;-0.560;2024-02-15T08:10:09;0.82;;;0.40;;
85849;SDS011;76337;42.850;-0.560;2024-02-15T08:12:39;0.25;;;0.20;;
85849;SDS011;76337;42.850;-0.560;2024-02-15T08:15:05;1.02;;;0.50;;
85849;SDS011;76337;42.850;-0.560;2024-02-15T08:17:37;1.20;;;0.52;;
85849;SDS011;76337;42.850;-0.560;2024-02-15T08:20:07;0.43;;;0.40;;
85849;SDS011;76337;42.850;-0.560;2024-02-15T08:22:34;1.30;;;0.60;;
85849;SDS011;76337;42.850;-0.560;2024-02-15T08:25:06;1.00;;;0.50;;
85849;SDS011;76337;42.850;-0.560;2024-02-15T08:27:37;0.68;;;0.40;;
85849;SDS011;76337;42.850;-0.560;2024-02-15T08:30:08;1.33;;;0.60;;
85849;SDS011;76337;42.850;-0.560;2024-02-15T08:32:36;0.63;;;0.30;;
85849;SDS011;76337;42.850;-0.560;2024-02-15T08:35:04;0.80;;;0.45;;
85849;SDS011;76337;42.850;-0.560;2024-02-15T08:37:32;2.45;;;0.57;;
85849;SDS011;76337;42.850;-0.560;2024-02-15T08:40:00;0.75;;;0.32;;
85849;SDS011;76337;42.850;-0.560;2024-02-15T08:42:28;1.08;;;0.40;;
85849;SDS011;76337;42.850;-0.560;2024-02-15T08:44:53;0.95;;;0.63;;
85849;SDS011;76337;42.850;-0.560;2024-02-15T08:47:20;0.85;;;0.63;;
85849;SDS011;76337;42.850;-0.560;2024-02-15T08:49:46;0.70;;;0.40;;
85849;SDS011;76337;42.850;-0.560;2024-02-15T08:52:12;0.95;;;0.47;;
85849;SDS011;76337;42.850;-0.560;2024-02-15T08:54:37;0.85;;;0.50;;
85849;SDS011;76337;42.850;-0.560;2024-02-15T08:57:05;1.17;;;0.60;;
85849;SDS011;76337;42.850;-0.560;2024-02-15T08:59:31;0.73;;;0.50;;
85849;SDS011;76337;42.850;-0.560;2024-02-15T09:01:58;0.60;;;0.40;;
85849;SDS011;76337;42.850;-0.560;2024-02-15T09:04:25;0.60;;;0.60;;
85849;SDS011;76337;42.850;-0.560;2024-02-15T09:06:51;0.52;;;0.20;;
85849;SDS011;76337;42.850;-0.560;2024-02-15T09:09:17;0.30;;;0.10;;
85849;SDS011;76337;42.850;-0.560;2024-02-15T09:11:43;2.17;;;0.60;;
85849;SDS011;76337;42.850;-0.560;2024-02-15T09:14:08;0.75;;;0.32;;
85849;SDS011;76337;42.850;-0.560;2024-02-15T09:16:35;0.60;;;0.30;;
85849;SDS011;76337;42.850;-0.560;2024-02-15T09:19:01;0.70;;;0.50;;
85849;SDS011;76337;42.850;-0.560;2024-02-15T09:21:27;2.33;;;0.65;;
85849;SDS011;76337;42.850;-0.560;2024-02-15T09:23:54;1.60;;;0.50;;
85849;SDS011;76337;42.850;-0.560;2024-02-15T09:26:21;0.93;;;0.50;;
85849;SDS011;76337;42.850;-0.560;2024-02-15T09:28:47;1.13;;;0.43;;
85849;SDS011;76337;42.850;-0.560;2024-02-15T09:31:13;0.35;;;0.20;;
85849;SDS011;76337;42.850;-0.560;2024-02-15T09:33:39;1.38;;;0.80;;
85849;SDS011;76337;42.850;-0.560;2024-02-15T09:36:05;1.10;;;0.70;;
85849;SDS011;76337;42.850;-0.560;2024-02-15T09:38:31;0.70;;;0.57;;
85849;SDS011;76337;42.850;-0.560;2024-02-15T09:40:57;0.73;;;0.50;;
85849;SDS011;76337;42.850;-0.560;2024-02-15T09:43:24;0.90;;;0.35;;
85849;SDS011;76337;42.850;-0.560;2024-02-15T09:45:52;2.63;;;0.35;;
85849;SDS011;76337;42.850;-0.560;2024-02-15T09:48:18;0.82;;;0.40;;
85849;SDS011;76337;42.850;-0.560;2024-02-15T09:50:46;1.58;;;0.47;;
85849;SDS011;76337;42.850;-0.560;2024-02-15T09:53:18;2.70;;;0.63;;
85849;SDS011;76337;42.850;-0.560;2024-02-15T09:55:46;3.90;;;0.88;;
85849;SDS011;76337;42.850;-0.560;2024-02-15T09:58:13;3.97;;;0.82;;
85849;SDS011;76337;42.850;-0.560;2024-02-15T10:00:40;7.45;;;1.45;;
85849;SDS011;76337;42.850;-0.560;2024-02-15T10:03:07;2.58;;;1.00;;
85849;SDS011;76337;42.850;-0.560;2024-02-15T10:05:35;5.00;;;1.33;;
85849;SDS011;76337;42.850;-0.560;2024-02-15T10:08:02;6.97;;;1.13;;
85849;SDS011;76337;42.850;-0.560;2024-02-15T10:10:28;3.78;;;0.80;;
85849;SDS011;76337;42.850;-0.560;2024-02-15T10:12:54;5.68;;;1.20;;
85849;SDS011;76337;42.850;-0.560;2024-02-15T10:17:57;6.35;;;2.38;;
85849;SDS011;76337;42.850;-0.560;2024-02-15T10:20:24;10.65;;;1.52;;
85849;SDS011;76337;42.850;-0.560;2024-02-15T10:25:37;11.02;;;1.60;;
85849;SDS011;76337;42.850;-0.560;2024-02-15T10:28:05;7.18;;;2.05;;
85849;SDS011;76337;42.850;-0.560;2024-02-15T10:30:34;5.32;;;1.50;;
85849;SDS011;76337;42.850;-0.560;2024-02-15T10:33:01;3.22;;;1.20;;
85849;SDS011;76337;42.850;-0.560;2024-02-15T10:35:27;6.25;;;1.30;;
85849;SDS011;76337;42.850;-0.560;2024-02-15T10:37:54;11.07;;;1.70;;
85849;SDS011;76337;42.850;-0.560;2024-02-15T10:40:32;6.03;;;1.58;;
85849;SDS011;76337;42.850;-0.560;2024-02-15T10:42:58;6.10;;;1.65;;
85849;SDS011;76337;42.850;-0.560;2024-02-15T10:45:28;7.30;;;3.03;;
85849;SDS011;76337;42.850;-0.560;2024-02-15T10:47:56;7.78;;;1.65;;
85849;SDS011;76337;42.850;-0.560;2024-02-15T10:50:22;11.15;;;2.10;;
85849;SDS011;76337;42.850;-0.560;2024-02-15T10:52:56;9.75;;;2.85;;
85849;SDS011;76337;42.850;-0.560;2024-02-15T10:55:26;9.05;;;2.10;;
85849;SDS011;76337;42.850;-0.560;2024-02-15T10:58:16;9.02;;;2.47;;
85849;SDS011;76337;42.850;-0.560;2024-02-15T11:03:12;9.75;;;1.98;;
85849;SDS011;76337;42.850;-0.560;2024-02-15T11:05:49;6.80;;;2.28;;
85849;SDS011;76337;42.850;-0.560;2024-02-15T11:08:16;7.38;;;2.55;;
85849;SDS011;76337;42.850;-0.560;2024-02-15T11:10:42;10.98;;;1.65;;
85849;SDS011;76337;42.850;-0.560;2024-02-15T11:13:09;6.88;;;1.60;;
85849;SDS011;76337;42.850;-0.560;2024-02-15T11:15:39;11.88;;;2.55;;
85849;SDS011;76337;42.850;-0.560;2024-02-15T11:18:11;10.90;;;2.15;;
85849;SDS011;76337;42.850;-0.560;2024-02-15T11:23:26;13.52;;;3.33;;
85849;SDS011;76337;42.850;-0.560;2024-02-15T11:25:52;14.52;;;3.22;;
85849;SDS011;76337;42.850;-0.560;2024-02-15T11:30:49;14.50;;;2.85;;
85849;SDS011;76337;42.850;-0.560;2024-02-15T11:33:46;9.30;;;2.42;;
85849;SDS011;76337;42.850;-0.560;2024-02-15T11:36:04;11.18;;;2.53;;
85849;SDS011;76337;42.850;-0.560;2024-02-15T11:38:31;10.80;;;2.33;;
85849;SDS011;76337;42.850;-0.560;2024-02-15T11:41:00;11.18;;;3.10;;
85849;SDS011;76337;42.850;-0.560;2024-02-15T11:46:21;11.43;;;2.83;;
85849;SDS011;76337;42.850;-0.560;2024-02-15T11:48:51;10.55;;;2.85;;
85849;SDS011;76337;42.850;-0.560;2024-02-15T11:54:01;11.25;;;2.28;;
85849;SDS011;76337;42.850;-0.560;2024-02-15T11:59:38;13.23;;;2.50;;
85849;SDS011;76337;42.850;-0.560;2024-02-15T12:02:18;13.65;;;3.85;;
85849;SDS011;76337;42.850;-0.560;2024-02-15T12:05:05;15.85;;;2.72;;
85849;SDS011;76337;42.850;-0.560;2024-02-15T12:07:51;13.20;;;2.60;;
85849;SDS011;76337;42.850;-0.560;2024-02-15T12:10:37;11.73;;;2.70;;
85849;SDS011;76337;42.850;-0.560;2024-02-15T12:13:23;10.32;;;2.78;;
85849;SDS011;76337;42.850;-0.560;2024-02-15T12:16:08;10.27;;;2.33;;
85849;SDS011;76337;42.850;-0.560;2024-02-15T12:18:54;12.43;;;2.03;;
85849;SDS011;76337;42.850;-0.560;2024-02-15T12:21:21;9.73;;;2.30;;
85849;SDS011;76337;42.850;-0.560;2024-02-15T12:23:52;8.73;;;1.92;;
85849;SDS011;76337;42.850;-0.560;2024-02-15T12:26:18;10.05;;;1.95;;
85849;SDS011;76337;42.850;-0.560;2024-02-15T12:28:49;13.05;;;2.67;;
85849;SDS011;76337;42.850;-0.560;2024-02-15T12:31:16;11.90;;;2.17;;
85849;SDS011;76337;42.850;-0.560;2024-02-15T12:33:43;12.38;;;2.05;;
85849;SDS011;76337;42.850;-0.560;2024-02-15T12:36:09;13.05;;;2.83;;
85849;SDS011;76337;42.850;-0.560;2024-02-15T12:38:35;12.60;;;2.67;;
85849;SDS011;76337;42.850;-0.560;2024-02-15T12:41:03;11.95;;;2.72;;
85849;SDS011;76337;42.850;-0.560;2024-02-15T12:43:43;11.55;;;2.47;;
85849;SDS011;76337;42.850;-0.560;2024-02-15T12:46:08;15.98;;;2.83;;
85849;SDS011;76337;42.850;-0.560;2024-02-15T12:48:34;11.60;;;2.50;;
85849;SDS011;76337;42.850;-0.560;2024-02-15T12:51:12;9.40;;;2.38;;
85849;SDS011;76337;42.850;-0.560;2024-02-15T12:53:39;8.35;;;1.75;;
85849;SDS011;76337;42.850;-0.560;2024-02-15T12:56:06;6.32;;;1.65;;
85849;SDS011;76337;42.850;-0.560;2024-02-15T12:58:34;8.50;;;1.88;;
85849;SDS011;76337;42.850;-0.560;2024-02-15T13:01:01;9.57;;;2.03;;
85849;SDS011;76337;42.850;-0.560;2024-02-15T13:03:27;9.77;;;1.45;;
85849;SDS011;76337;42.850;-0.560;2024-02-15T13:05:53;6.00;;;1.60;;
85849;SDS011;76337;42.850;-0.560;2024-02-15T13:08:19;6.15;;;1.48;;
85849;SDS011;76337;42.850;-0.560;2024-02-15T13:10:45;5.85;;;1.80;;
85849;SDS011;76337;42.850;-0.560;2024-02-15T13:13:12;5.82;;;1.40;;
85849;SDS011;76337;42.850;-0.560;2024-02-15T13:15:41;6.28;;;1.60;;
85849;SDS011;76337;42.850;-0.560;2024-02-15T13:18:09;5.05;;;1.73;;
85849;SDS011;76337;42.850;-0.560;2024-02-15T13:20:36;5.07;;;1.80;;
85849;SDS011;76337;42.850;-0.560;2024-02-15T13:23:03;4.38;;;0.80;;
85849;SDS011;76337;42.850;-0.560;2024-02-15T13:25:34;9.77;;;2.10;;
85849;SDS011;76337;42.850;-0.560;2024-02-15T13:28:02;7.10;;;1.77;;
85849;SDS011;76337;42.850;-0.560;2024-02-15T13:30:29;8.88;;;1.70;;
85849;SDS011;76337;42.850;-0.560;2024-02-15T13:32:55;7.38;;;1.58;;
85849;SDS011;76337;42.850;-0.560;2024-02-15T13:35:21;6.63;;;1.83;;
85849;SDS011;76337;42.850;-0.560;2024-02-15T13:37:50;7.50;;;1.63;;
85849;SDS011;76337;42.850;-0.560;2024-02-15T13:40:20;7.82;;;1.52;;
85849;SDS011;76337;42.850;-0.560;2024-02-15T13:42:49;11.32;;;1.80;;
85849;SDS011;76337;42.850;-0.560;2024-02-15T13:45:22;8.65;;;2.45;;
85849;SDS011;76337;42.850;-0.560;2024-02-15T13:47:49;8.23;;;1.70;;
85849;SDS011;76337;42.850;-0.560;2024-02-15T13:50:15;6.22;;;1.50;;
85849;SDS011;76337;42.850;-0.560;2024-02-15T13:52:44;7.13;;;2.03;;
85849;SDS011;76337;42.850;-0.560;2024-02-15T13:55:12;4.60;;;1.67;;
85849;SDS011;76337;42.850;-0.560;2024-02-15T13:57:40;6.43;;;1.65;;
85849;SDS011;76337;42.850;-0.560;2024-02-15T14:00:08;9.63;;;2.50;;
85849;SDS011;76337;42.850;-0.560;2024-02-15T14:02:39;5.28;;;1.63;;
85849;SDS011;76337;42.850;-0.560;2024-02-15T14:05:06;9.70;;;1.58;;
85849;SDS011;76337;42.850;-0.560;2024-02-15T14:07:34;8.80;;;2.10;;
85849;SDS011;76337;42.850;-0.560;2024-02-15T14:10:02;7.65;;;1.75;;
85849;SDS011;76337;42.850;-0.560;2024-02-15T14:12:29;7.93;;;1.92;;
85849;SDS011;76337;42.850;-0.560;2024-02-15T14:14:54;7.43;;;1.48;;
85849;SDS011;76337;42.850;-0.560;2024-02-15T14:17:21;11.23;;;2.88;;
85849;SDS011;76337;42.850;-0.560;2024-02-15T14:19:48;11.52;;;2.17;;
85849;SDS011;76337;42.850;-0.560;2024-02-15T14:22:14;6.65;;;2.13;;
85849;SDS011;76337;42.850;-0.560;2024-02-15T14:24:41;7.53;;;1.58;;
85849;SDS011;76337;42.850;-0.560;2024-02-15T14:27:09;7.28;;;2.08;;
85849;SDS011;76337;42.850;-0.560;2024-02-15T14:29:37;5.97;;;1.77;;
85849;SDS011;76337;42.850;-0.560;2024-02-15T14:32:10;6.63;;;1.30;;
85849;SDS011;76337;42.850;-0.560;2024-02-15T14:34:56;5.50;;;2.20;;
85849;SDS011;76337;42.850;-0.560;2024-02-15T14:37:22;7.10;;;1.00;;
85849;SDS011;76337;42.850;-0.560;2024-02-15T14:39:49;7.15;;;1.90;;
85849;SDS011;76337;42.850;-0.560;2024-02-15T14:42:15;6.03;;;1.70;;
85849;SDS011;76337;42.850;-0.560;2024-02-15T14:44:41;7.55;;;1.50;;
85849;SDS011;76337;42.850;-0.560;2024-02-15T14:47:08;7.05;;;2.22;;
85849;SDS011;76337;42.850;-0.560;2024-02-15T14:49:34;4.93;;;1.50;;
85849;SDS011;76337;42.850;-0.560;2024-02-15T14:52:00;7.57;;;1.30;;
85849;SDS011;76337;42.850;-0.560;2024-02-15T14:54:27;4.70;;;0.95;;
85849;SDS011;76337;42.850;-0.560;2024-02-15T14:56:52;3.75;;;1.02;;
85849;SDS011;76337;42.850;-0.560;2024-02-15T14:59:19;3.60;;;1.00;;
85849;SDS011;76337;42.850;-0.560;2024-02-15T15:01:45;1.77;;;0.77;;